createdAt,value
2022-12-11T00:01:12.240Z,39.53
2022-12-11T00:03:40.565Z,36.72
2022-12-11T00:06:09.285Z,37.05
2022-12-11T00:08:38.908Z,37.22
2022-12-11T00:11:08.871Z,38.22
2022-12-11T00:13:36.740Z,35.47
2022-12-11T00:16:04.844Z,36.45
2022-12-11T00:18:32.811Z,37.78
2022-12-11T00:21:02.147Z,41.63
2022-12-11T00:23:30.487Z,41.67
2022-12-11T00:25:59.797Z,42.78
2022-12-11T00:28:27.768Z,41.40
2022-12-11T00:30:55.746Z,40.20
2022-12-11T00:33:23.632Z,35.63
2022-12-11T00:35:51.528Z,37.10
2022-12-11T00:38:21.939Z,33.58
2022-12-11T00:40:50.013Z,33.80
2022-12-11T00:43:19.301Z,32.67
2022-12-11T00:45:48.713Z,31.63
2022-12-11T00:48:16.861Z,36.83
2022-12-11T00:50:44.774Z,33.08
2022-12-11T00:53:12.721Z,32.00
2022-12-11T00:55:41.794Z,36.35
2022-12-11T00:58:10.100Z,36.67
2022-12-11T01:00:39.978Z,37.17
2022-12-11T01:03:08.712Z,44.20
2022-12-11T01:05:36.973Z,41.83
2022-12-11T01:08:05.214Z,44.20
2022-12-11T01:10:33.999Z,37.72
2022-12-11T01:13:03.865Z,38.80
2022-12-11T01:15:36.455Z,37.42
2022-12-11T01:18:09.321Z,38.45
2022-12-11T01:20:39.036Z,37.17
2022-12-11T01:23:07.578Z,34.90
2022-12-11T01:25:38.099Z,36.10
2022-12-11T01:28:06.487Z,33.83
2022-12-11T01:30:35.079Z,36.58
2022-12-11T01:33:03.168Z,33.80
2022-12-11T01:35:32.597Z,30.63
2022-12-11T01:38:00.582Z,29.10
2022-12-11T01:40:28.555Z,31.13
2022-12-11T01:42:56.541Z,32.75
2022-12-11T01:45:32.187Z,34.38
2022-12-11T01:48:07.343Z,36.38
2022-12-11T01:50:40.506Z,42.90
2022-12-11T01:53:11.401Z,37.55
2022-12-11T01:55:40.760Z,39.40
2022-12-11T01:58:11.608Z,38.47
2022-12-11T02:00:39.519Z,34.83
2022-12-11T02:03:07.458Z,39.40
2022-12-11T02:05:36.720Z,38.13
2022-12-11T02:08:05.082Z,40.75
2022-12-11T02:10:49.569Z,37.38
2022-12-11T02:13:22.487Z,35.13
2022-12-11T02:15:56.681Z,36.53
2022-12-11T02:18:32.112Z,37.15
2022-12-11T02:21:08.126Z,34.63
2022-12-11T02:24:01.408Z,36.53
2022-12-11T02:26:57.262Z,38.40
2022-12-11T02:29:34.711Z,43.00
2022-12-11T02:32:07.500Z,40.78
2022-12-11T02:34:42.095Z,41.90
2022-12-11T02:37:16.172Z,41.80
2022-12-11T02:39:45.537Z,42.17
2022-12-11T02:42:16.213Z,43.63
2022-12-11T02:44:47.593Z,44.10
2022-12-11T02:47:17.521Z,43.80
2022-12-11T02:49:48.445Z,44.58
2022-12-11T02:52:19.808Z,45.70
2022-12-11T02:54:49.088Z,45.20
2022-12-11T02:57:23.024Z,42.13
2022-12-11T02:59:52.365Z,44.05
2022-12-11T03:02:20.358Z,45.40
2022-12-11T03:04:48.939Z,40.80
2022-12-11T03:07:19.376Z,40.03
2022-12-11T03:09:48.554Z,41.85
2022-12-11T03:12:21.539Z,36.88
2022-12-11T03:14:50.417Z,34.05
2022-12-11T03:17:23.197Z,36.03
2022-12-11T03:19:58.303Z,36.65
2022-12-11T03:22:34.047Z,38.17
2022-12-11T03:25:05.130Z,33.85
2022-12-11T03:27:37.981Z,33.80
2022-12-11T03:30:08.423Z,34.60
2022-12-11T03:32:42.146Z,33.78
2022-12-11T03:35:14.651Z,32.90
2022-12-11T03:37:45.700Z,32.58
2022-12-11T03:40:16.972Z,34.65
2022-12-11T03:42:48.229Z,32.83
2022-12-11T03:45:17.960Z,27.27
2022-12-11T03:47:48.629Z,28.08
2022-12-11T03:50:19.273Z,29.95
2022-12-11T03:52:48.572Z,24.35
2022-12-11T03:55:18.857Z,24.40
2022-12-11T03:57:46.936Z,17.88
2022-12-11T04:00:17.921Z,19.70
2022-12-11T04:03:12.953Z,18.65
2022-12-11T04:05:42.674Z,20.38
2022-12-11T04:08:11.182Z,26.92
2022-12-11T04:10:39.264Z,40.47
2022-12-11T04:13:07.690Z,30.02
2022-12-11T04:15:34.821Z,23.40
2022-12-11T04:18:36.685Z,22.65
2022-12-11T04:21:22.374Z,21.63
2022-12-11T04:24:07.637Z,18.30
2022-12-11T04:26:35.620Z,17.83
2022-12-11T04:29:03.552Z,16.70
2022-12-11T04:31:31.488Z,17.95
2022-12-11T04:34:01.092Z,16.02
2022-12-11T04:36:29.081Z,17.10
2022-12-11T04:38:57.021Z,16.17
2022-12-11T04:41:24.907Z,15.20
2022-12-11T04:43:52.868Z,16.08
2022-12-11T04:46:23.314Z,20.42
2022-12-11T04:48:57.074Z,30.83
2022-12-11T04:51:27.591Z,36.90
2022-12-11T04:53:55.785Z,42.13
2022-12-11T04:56:23.690Z,47.58
2022-12-11T04:58:51.661Z,48.83
2022-12-11T05:01:21.999Z,47.60
2022-12-11T05:03:50.354Z,50.75
2022-12-11T05:06:18.326Z,51.75
2022-12-11T05:08:47.589Z,53.60
2022-12-11T05:11:17.465Z,52.58
2022-12-11T05:13:46.518Z,51.50
2022-12-11T05:16:18.952Z,52.63
2022-12-11T05:18:47.383Z,45.28
2022-12-11T05:21:16.296Z,47.20
2022-12-11T05:23:44.396Z,46.47
2022-12-11T05:26:16.236Z,44.58
2022-12-11T05:28:44.449Z,42.60
2022-12-11T05:31:16.357Z,44.35
2022-12-11T05:33:44.339Z,44.63
2022-12-11T05:36:16.853Z,39.60
2022-12-11T05:38:44.833Z,40.30
2022-12-11T05:41:16.075Z,40.28
2022-12-11T05:43:44.453Z,36.25
2022-12-11T05:46:15.540Z,38.15
2022-12-11T05:48:44.188Z,36.13
2022-12-11T05:51:12.571Z,32.42
2022-12-11T05:53:42.212Z,34.80
2022-12-11T05:56:15.503Z,32.58
2022-12-11T05:58:44.811Z,30.30
2022-12-11T06:01:16.364Z,34.33
2022-12-11T06:03:44.664Z,31.58
2022-12-11T06:06:12.964Z,31.50
2022-12-11T06:08:41.093Z,32.13
2022-12-11T06:11:10.027Z,33.70
2022-12-11T06:13:39.301Z,28.42
2022-12-11T06:16:09.345Z,29.75
2022-12-11T06:18:38.013Z,28.67
2022-12-11T06:21:13.673Z,29.23
2022-12-11T06:23:42.788Z,28.83
2022-12-11T06:26:11.583Z,25.83
2022-12-11T06:28:40.814Z,27.88
2022-12-11T06:31:09.012Z,25.08
2022-12-11T06:33:37.128Z,27.23
2022-12-11T06:36:09.853Z,30.80
2022-12-11T06:38:38.485Z,29.63
2022-12-11T06:41:08.068Z,28.67
2022-12-11T06:43:37.875Z,28.55
2022-12-11T06:46:08.401Z,26.27
2022-12-11T06:48:36.919Z,24.23
2022-12-11T06:51:08.169Z,24.25
2022-12-11T06:53:36.577Z,26.92
2022-12-11T06:56:05.497Z,30.77
2022-12-11T06:58:34.943Z,22.27
2022-12-11T07:01:03.083Z,25.60
2022-12-11T07:03:33.504Z,23.80
2022-12-11T07:06:02.801Z,25.33
2022-12-11T07:08:31.972Z,29.60
2022-12-11T07:11:04.735Z,35.00
2022-12-11T07:13:33.693Z,31.48
2022-12-11T07:16:01.959Z,36.85
2022-12-11T07:18:30.051Z,34.35
2022-12-11T07:21:01.074Z,39.63
2022-12-11T07:23:29.562Z,46.65
2022-12-11T07:25:57.935Z,42.70
2022-12-11T07:28:26.246Z,39.15
2022-12-11T07:30:54.129Z,34.33
2022-12-11T07:33:22.023Z,33.40
2022-12-11T07:35:49.904Z,33.45
2022-12-11T07:38:19.224Z,29.83
2022-12-11T07:40:47.152Z,33.25
2022-12-11T07:43:15.057Z,33.55
2022-12-11T07:45:43.443Z,34.10
2022-12-11T07:48:12.679Z,43.17
2022-12-11T07:50:40.580Z,48.45
2022-12-11T07:53:08.728Z,50.00
2022-12-11T07:55:45.483Z,36.67
2022-12-11T07:58:13.425Z,37.38
2022-12-11T08:00:41.372Z,33.33
2022-12-11T08:03:09.955Z,35.13
2022-12-11T08:05:37.973Z,36.22
2022-12-11T08:08:06.515Z,40.60
2022-12-11T08:10:34.439Z,34.28
2022-12-11T08:13:03.714Z,36.28
2022-12-11T08:15:31.590Z,32.20
2022-12-11T08:17:59.549Z,29.85
2022-12-11T08:20:27.527Z,28.13
2022-12-11T08:22:59.222Z,32.33
2022-12-11T08:25:27.456Z,32.97
2022-12-11T08:27:55.355Z,34.20
2022-12-11T08:30:24.766Z,26.38
2022-12-11T08:32:52.778Z,31.63
2022-12-11T08:35:20.735Z,29.00
2022-12-11T08:37:48.679Z,27.63
2022-12-11T08:40:16.697Z,27.70
2022-12-11T08:42:44.739Z,24.23
2022-12-11T08:45:13.121Z,24.65
2022-12-11T08:47:42.995Z,25.92
2022-12-11T08:50:11.376Z,22.75
2022-12-11T08:52:39.275Z,24.17
2022-12-11T08:55:08.220Z,25.95
2022-12-11T08:57:39.665Z,22.50
2022-12-11T09:00:10.057Z,21.50
2022-12-11T09:02:38.225Z,22.77
2022-12-11T09:05:10.146Z,24.75
2022-12-11T09:07:43.949Z,23.77
2022-12-11T09:10:12.064Z,21.83
2022-12-11T09:12:40.087Z,22.45
2022-12-11T09:15:09.163Z,22.70
2022-12-11T09:17:37.260Z,60.88
2022-12-11T09:20:07.703Z,56.88
2022-12-11T09:22:35.589Z,32.35
2022-12-11T09:25:03.612Z,71.18
2022-12-11T09:27:31.524Z,56.88
2022-12-11T09:29:59.471Z,65.63
2022-12-11T09:32:27.396Z,68.47
2022-12-11T09:34:55.377Z,65.40
2022-12-11T09:37:24.880Z,64.15
2022-12-11T09:39:54.462Z,62.67
2022-12-11T09:42:28.940Z,71.57
2022-12-11T09:45:02.258Z,53.90
2022-12-11T09:47:37.140Z,60.58
2022-12-11T09:50:13.948Z,86.78
2022-12-11T09:52:54.350Z,88.05
2022-12-11T09:55:25.149Z,75.25
2022-12-11T09:58:01.608Z,50.15
2022-12-11T10:00:34.287Z,35.65
2022-12-11T10:03:25.308Z,25.83
2022-12-11T10:06:04.257Z,25.00
2022-12-11T10:08:41.623Z,22.73
2022-12-11T10:11:34.103Z,62.25
2022-12-11T10:14:11.472Z,26.70
2022-12-11T10:16:44.317Z,26.33
2022-12-11T10:19:18.238Z,28.00
2022-12-11T10:21:47.733Z,24.55
2022-12-11T10:24:48.878Z,22.35
2022-12-11T10:27:19.406Z,25.17
2022-12-11T10:29:48.642Z,20.67
2022-12-11T10:32:24.578Z,23.67
2022-12-11T10:35:00.459Z,24.90
2022-12-11T10:37:30.857Z,22.58
2022-12-11T10:40:00.216Z,22.60
2022-12-11T10:42:28.115Z,23.63
2022-12-11T10:45:01.876Z,18.95
2022-12-11T10:47:34.041Z,25.38
2022-12-11T10:50:03.820Z,21.05
2022-12-11T10:52:36.049Z,19.60
2022-12-11T10:55:08.611Z,22.88
2022-12-11T10:57:40.934Z,21.95
2022-12-11T11:00:32.295Z,22.10
2022-12-11T11:03:00.914Z,23.08
2022-12-11T11:05:31.949Z,21.45
2022-12-11T11:08:22.508Z,21.10
2022-12-11T11:10:57.729Z,21.02
2022-12-11T11:13:27.652Z,19.23
2022-12-11T11:16:02.461Z,21.23
2022-12-11T11:18:31.563Z,19.67
2022-12-11T11:21:00.620Z,21.00
2022-12-11T11:23:29.288Z,20.35
2022-12-11T11:26:01.582Z,18.15
2022-12-11T11:28:31.841Z,21.08
2022-12-11T11:31:04.485Z,19.48
2022-12-11T11:33:33.968Z,19.92
2022-12-11T11:36:03.498Z,26.30
2022-12-11T11:38:35.615Z,22.23
2022-12-11T11:41:15.077Z,20.30
2022-12-11T11:43:47.496Z,19.42
2022-12-11T11:46:21.163Z,22.90
2022-12-11T11:48:57.018Z,21.95
2022-12-11T11:51:30.371Z,25.83
2022-12-11T11:54:01.574Z,25.08
2022-12-11T11:56:35.070Z,24.25
2022-12-11T11:59:12.385Z,21.27
2022-12-11T12:01:42.519Z,19.52
2022-12-11T12:04:11.933Z,18.13
2022-12-11T12:07:06.152Z,19.23
2022-12-11T12:09:48.168Z,22.48
2022-12-11T12:12:31.044Z,20.65
2022-12-11T12:15:20.047Z,15.50
2022-12-11T12:17:55.666Z,15.07
2022-12-11T12:20:32.009Z,15.13
2022-12-11T12:23:12.441Z,19.77
2022-12-11T12:25:45.370Z,17.42
2022-12-11T12:28:27.045Z,18.88
2022-12-11T12:31:10.071Z,17.45
2022-12-11T12:33:47.201Z,19.45
2022-12-11T12:36:23.026Z,18.75
2022-12-11T12:38:56.223Z,19.13
2022-12-11T12:41:32.887Z,21.70
2022-12-11T12:44:13.484Z,22.23
2022-12-11T12:46:51.697Z,17.92
2022-12-11T12:49:29.289Z,16.02
2022-12-11T12:51:58.137Z,16.80
2022-12-11T12:54:29.909Z,14.60
2022-12-11T12:57:03.706Z,12.98
2022-12-11T12:59:33.012Z,16.50
2022-12-11T13:02:03.786Z,15.95
2022-12-11T13:04:58.652Z,17.05
2022-12-11T13:07:30.700Z,16.30
2022-12-11T13:10:01.856Z,16.15
2022-12-11T13:12:44.681Z,13.05
2022-12-11T13:15:27.460Z,13.23
2022-12-11T13:17:55.498Z,15.82
2022-12-11T13:20:25.318Z,17.38
2022-12-11T13:23:08.945Z,19.77
2022-12-11T13:25:52.591Z,25.05
2022-12-11T13:28:29.905Z,24.45
2022-12-11T13:31:00.956Z,27.27
2022-12-11T13:33:30.008Z,23.38
2022-12-11T13:36:24.402Z,27.17
2022-12-11T13:38:56.915Z,20.48
2022-12-11T13:41:25.865Z,22.67
2022-12-11T13:43:54.540Z,23.25
2022-12-11T13:46:27.025Z,23.38
2022-12-11T13:49:00.793Z,27.10
2022-12-11T13:51:30.568Z,28.45
2022-12-11T13:54:17.349Z,26.08
2022-12-11T13:57:05.589Z,25.23
2022-12-11T13:59:35.858Z,25.42
2022-12-11T14:02:16.359Z,25.23
2022-12-11T14:04:44.697Z,23.20
2022-12-11T14:07:13.435Z,26.27
2022-12-11T14:09:45.165Z,24.52
2022-12-11T14:12:18.506Z,25.48
2022-12-11T14:14:50.854Z,27.67
2022-12-11T14:17:27.134Z,44.88
2022-12-11T14:19:56.990Z,25.83
2022-12-11T14:22:29.793Z,30.98
2022-12-11T14:25:00.297Z,27.27
2022-12-11T14:27:28.849Z,26.80
2022-12-11T14:29:57.241Z,25.00
2022-12-11T14:32:33.622Z,26.98
2022-12-11T14:35:05.379Z,25.67
2022-12-11T14:37:36.600Z,27.58
2022-12-11T14:40:08.395Z,26.67
2022-12-11T14:42:42.369Z,27.75
2022-12-11T14:45:22.415Z,31.10
2022-12-11T14:47:53.132Z,30.88
2022-12-11T14:50:23.756Z,27.00
2022-12-11T14:52:56.229Z,27.45
2022-12-11T14:55:29.389Z,39.53
2022-12-11T14:58:00.006Z,25.55
2022-12-11T15:00:30.282Z,26.90
2022-12-11T15:03:01.919Z,21.60
2022-12-11T15:05:33.346Z,45.72
2022-12-11T15:08:24.354Z,45.65
2022-12-11T15:11:04.057Z,34.78
2022-12-11T15:13:32.549Z,40.08
2022-12-11T15:16:01.424Z,32.65
2022-12-11T15:18:33.117Z,27.42
2022-12-11T15:21:05.108Z,26.27
2022-12-11T15:23:39.409Z,26.58
2022-12-11T15:26:07.484Z,22.92
2022-12-11T15:28:37.285Z,19.63
2022-12-11T15:31:10.271Z,17.33
2022-12-11T15:33:48.607Z,17.83
2022-12-11T15:36:27.703Z,18.17
2022-12-11T15:38:56.347Z,23.17
2022-12-11T15:41:25.008Z,17.80
2022-12-11T15:43:58.594Z,23.10
2022-12-11T15:46:27.344Z,23.38
2022-12-11T15:49:13.538Z,31.10
2022-12-11T15:51:43.259Z,32.75
2022-12-11T15:54:11.470Z,33.60
2022-12-11T15:56:39.919Z,30.35
2022-12-11T15:59:07.997Z,33.72
2022-12-11T16:01:36.081Z,36.03
2022-12-11T16:04:05.433Z,43.42
2022-12-11T16:06:35.280Z,38.22
2022-12-11T16:09:04.977Z,31.80
2022-12-11T16:11:33.097Z,32.55
2022-12-11T16:14:04.236Z,31.17
2022-12-11T16:16:32.319Z,31.05
2022-12-11T16:19:00.702Z,25.27
2022-12-11T16:21:29.114Z,28.52
2022-12-11T16:23:58.426Z,27.52
2022-12-11T16:26:26.627Z,30.40
2022-12-11T16:28:54.553Z,26.73
2022-12-11T16:31:24.905Z,31.35
2022-12-11T16:33:52.947Z,28.50
2022-12-11T16:36:21.220Z,28.77
2022-12-11T16:38:53.843Z,29.35
2022-12-11T16:41:23.947Z,31.05
2022-12-11T16:43:52.130Z,28.75
2022-12-11T16:46:20.971Z,29.88
2022-12-11T16:48:49.408Z,31.27
2022-12-11T16:51:18.051Z,32.40
2022-12-11T16:53:46.131Z,30.17
2022-12-11T16:56:14.053Z,33.17
2022-12-11T16:58:45.331Z,30.20
2022-12-11T17:01:14.745Z,32.83
2022-12-11T17:03:44.443Z,31.40
2022-12-11T17:06:14.200Z,31.52
2022-12-11T17:08:42.756Z,32.83
2022-12-11T17:11:12.960Z,32.88
2022-12-11T17:13:41.148Z,35.60
2022-12-11T17:16:12.678Z,34.13
2022-12-11T17:18:41.729Z,30.67
2022-12-11T17:21:11.379Z,35.20
2022-12-11T17:23:39.928Z,31.83
2022-12-11T17:26:08.989Z,35.58
2022-12-11T17:28:40.429Z,49.00
2022-12-11T17:31:15.085Z,41.47
2022-12-11T17:33:43.152Z,63.40
2022-12-11T17:36:14.897Z,47.80
2022-12-11T17:38:42.826Z,42.10
2022-12-11T17:41:20.092Z,44.03
2022-12-11T17:43:49.670Z,46.83
2022-12-11T17:46:19.958Z,47.28
2022-12-11T17:48:49.344Z,40.88
2022-12-11T17:51:23.974Z,40.00
2022-12-11T17:53:52.687Z,41.67
2022-12-11T17:56:20.774Z,36.78
2022-12-11T17:58:48.966Z,41.17
2022-12-11T18:01:18.757Z,47.08
2022-12-11T18:03:47.021Z,54.95
2022-12-11T18:06:16.764Z,68.07
2022-12-11T18:08:46.016Z,53.33
2022-12-11T18:11:15.983Z,44.20
2022-12-11T18:13:45.122Z,69.40
2022-12-11T18:16:16.961Z,69.55
2022-12-11T18:18:47.209Z,52.45
2022-12-11T18:21:17.069Z,51.58
2022-12-11T18:23:45.656Z,100.97
2022-12-11T18:26:14.497Z,57.45
2022-12-11T18:28:44.453Z,52.75
2022-12-11T18:31:17.874Z,50.38
2022-12-11T18:33:48.709Z,51.47
2022-12-11T18:36:18.121Z,50.38
2022-12-11T18:38:47.032Z,49.72
2022-12-11T18:41:18.737Z,61.75
2022-12-11T18:43:46.956Z,49.35
2022-12-11T18:46:17.539Z,43.95
2022-12-11T18:48:48.567Z,45.15
2022-12-11T18:51:18.922Z,50.63
2022-12-11T18:53:47.532Z,46.53
2022-12-11T18:56:19.783Z,51.28
2022-12-11T18:58:48.199Z,52.65
2022-12-11T19:01:20.675Z,48.55
2022-12-11T19:03:51.395Z,46.30
2022-12-11T19:06:21.605Z,40.30
2022-12-11T19:08:49.889Z,44.75
2022-12-11T19:11:20.335Z,49.28
2022-12-11T19:13:50.891Z,56.30
2022-12-11T19:16:19.587Z,54.20
2022-12-11T19:18:51.125Z,55.60
2022-12-11T19:21:20.313Z,53.55
2022-12-11T19:23:48.658Z,52.13
2022-12-11T19:26:19.093Z,53.45
2022-12-11T19:28:47.491Z,52.70
2022-12-11T19:31:19.587Z,53.38
2022-12-11T19:33:47.759Z,66.30
2022-12-11T19:36:18.757Z,63.65
2022-12-11T19:38:47.841Z,58.28
2022-12-11T19:41:18.732Z,54.30
2022-12-11T19:43:47.238Z,53.92
2022-12-11T19:46:16.017Z,48.45
2022-12-11T19:48:44.267Z,51.15
2022-12-11T19:51:15.517Z,67.93
2022-12-11T19:53:46.114Z,71.57
2022-12-11T19:56:14.775Z,67.10
2022-12-11T19:58:43.313Z,56.30
2022-12-11T20:01:18.426Z,57.80
2022-12-11T20:03:46.609Z,52.35
2022-12-11T20:06:16.531Z,48.42
2022-12-11T20:08:48.214Z,43.63
2022-12-11T20:11:18.900Z,42.00
2022-12-11T20:13:47.356Z,47.88
2022-12-11T20:16:16.798Z,40.45
2022-12-11T20:18:44.881Z,36.83
2022-12-11T20:21:15.171Z,37.25
2022-12-11T20:23:47.600Z,42.38
2022-12-11T20:26:18.614Z,38.70
2022-12-11T20:28:50.383Z,41.13
2022-12-11T20:31:24.103Z,36.22
2022-12-11T20:33:53.912Z,40.00
2022-12-11T20:36:23.635Z,38.55
2022-12-11T20:38:53.714Z,37.72
2022-12-11T20:41:23.986Z,36.22
2022-12-11T20:43:53.913Z,37.08
2022-12-11T20:46:24.976Z,38.15
2022-12-11T20:48:53.648Z,36.83
2022-12-11T20:51:26.007Z,40.65
2022-12-11T20:53:59.239Z,34.10
2022-12-11T20:56:29.979Z,32.10
2022-12-11T20:58:58.796Z,38.17
2022-12-11T21:01:30.819Z,37.13
2022-12-11T21:03:59.303Z,33.60
2022-12-11T21:06:30.977Z,34.55
2022-12-11T21:09:02.080Z,33.55
2022-12-11T21:11:30.523Z,48.20
2022-12-11T21:13:58.523Z,61.97
2022-12-11T21:16:26.608Z,47.35
2022-12-11T21:18:56.233Z,51.17
2022-12-11T21:21:24.829Z,70.43
2022-12-11T21:23:53.501Z,54.22
2022-12-11T21:26:22.896Z,74.80
2022-12-11T21:28:51.175Z,80.00
2022-12-11T21:31:20.710Z,72.60
2022-12-11T21:33:52.042Z,61.10
2022-12-11T21:36:19.957Z,76.70
2022-12-11T21:38:48.133Z,83.93
2022-12-11T21:41:17.610Z,74.85
2022-12-11T21:46:36.829Z,69.68
2022-12-11T21:49:05.261Z,69.07
2022-12-11T21:51:42.563Z,71.60
2022-12-11T21:54:15.436Z,66.10
2022-12-11T21:56:43.637Z,69.18
2022-12-11T21:59:12.939Z,146.80
2022-12-11T22:01:43.003Z,63.80
2022-12-11T22:04:11.820Z,58.03
2022-12-11T22:06:40.173Z,52.85
2022-12-11T22:09:08.085Z,48.90
2022-12-11T22:11:37.056Z,54.13
2022-12-11T22:14:06.804Z,41.45
2022-12-11T22:16:36.763Z,48.45
2022-12-11T22:19:04.896Z,48.40
2022-12-11T22:21:32.824Z,47.33
2022-12-11T22:24:00.954Z,41.63
2022-12-11T22:26:29.851Z,40.08
2022-12-11T22:28:58.272Z,39.45
2022-12-11T22:31:27.838Z,38.33
2022-12-11T22:33:57.404Z,36.10
2022-12-11T22:36:26.902Z,41.55
2022-12-11T22:38:55.460Z,39.65
2022-12-11T22:41:26.332Z,33.25
2022-12-11T22:43:54.498Z,40.65
2022-12-11T22:46:25.290Z,36.95
2022-12-11T22:48:53.346Z,37.53
2022-12-11T22:51:23.075Z,42.88
2022-12-11T22:53:51.008Z,43.58
2022-12-11T22:56:19.043Z,44.80
2022-12-11T22:58:46.916Z,40.65
2022-12-11T23:01:18.073Z,40.65
2022-12-11T23:03:46.271Z,42.70
2022-12-11T23:06:16.302Z,46.08
2022-12-11T23:08:46.302Z,45.85
2022-12-11T23:11:15.537Z,46.42
2022-12-11T23:13:43.769Z,46.50
2022-12-11T23:16:12.809Z,46.10
2022-12-11T23:18:40.741Z,45.40
2022-12-11T23:21:09.061Z,41.25
2022-12-11T23:23:37.264Z,41.28
2022-12-11T23:26:10.773Z,44.60
2022-12-11T23:28:39.035Z,40.13
2022-12-11T23:31:09.909Z,46.28
2022-12-11T23:33:37.999Z,41.65
2022-12-11T23:36:06.372Z,44.13
2022-12-11T23:38:36.754Z,46.40
2022-12-11T23:41:07.506Z,46.80
2022-12-11T23:43:36.406Z,45.92
2022-12-11T23:46:04.788Z,44.40
2022-12-11T23:48:32.746Z,46.67
2022-12-11T23:51:01.133Z,46.55
2022-12-11T23:53:29.435Z,43.28
2022-12-11T23:55:57.548Z,44.92
2022-12-11T23:58:26.777Z,41.70
